Time;durP1;ratioP1;P1;durP2;ratioP2;P2;SDS_P1;SDS_P2;PMS_P1;PMS_P2;Temp;Humidity;BMP_temperature;BMP_pressure;BME280_temperature;BME280_humidity;BME280_pressure;Samples;Min_cycle;Max_cycle;Signal;HPM_P1;HPM_P2
2021/03/01 00:01:46;;;;;;;47.78;12.73;;;;;;;;;;5032336;28;20124;-64
2021/03/01 00:04:31;;;;;;;57.47;17.20;;;;;;;;;;5032340;28;20053;-65
2021/03/01 00:07:17;;;;;;;58.78;17.50;;;;;;;;;;5032403;28;20041;-65
2021/03/01 00:10:02;;;;;;;88.50;21.23;;;;;;;;;;5032189;28;20512;-65
2021/03/01 00:12:47;;;;;;;107.35;20.05;;;;;;;;;;5018082;28;20489;-63
2021/03/01 00:15:32;;;;;;;118.93;22.52;;;;;;;;;;5007749;28;20058;-65
2021/03/01 00:18:18;;;;;;;106.32;19.75;;;;;;;;;;5002469;28;20056;-65
2021/03/01 00:21:04;;;;;;;205.18;26.40;;;;;;;;;;5012190;28;20461;-64
2021/03/01 00:23:49;;;;;;;87.88;18.67;;;;;;;;;;5012419;28;20124;-65
2021/03/01 00:26:34;;;;;;;59.78;15.48;;;;;;;;;;5012305;28;20469;-64
2021/03/01 00:29:20;;;;;;;99.20;18.65;;;;;;;;;;5011898;28;20054;-64
2021/03/01 00:32:05;;;;;;;95.93;17.58;;;;;;;;;;5001488;28;20455;-65
2021/03/01 00:34:51;;;;;;;95.03;18.77;;;;;;;;;;4992582;28;20053;-65
2021/03/01 00:37:36;;;;;;;118.32;20.63;;;;;;;;;;4992468;28;20065;-64
2021/03/01 00:40:22;;;;;;;60.13;15.32;;;;;;;;;;4992576;28;20069;-63
2021/03/01 00:43:07;;;;;;;56.70;14.82;;;;;;;;;;4992551;28;20043;-65
2021/03/01 00:45:52;;;;;;;86.75;16.55;;;;;;;;;;4992391;28;20058;-65
2021/03/01 00:48:38;;;;;;;55.92;12.68;;;;;;;;;;4992585;28;20055;-64
2021/03/01 00:51:23;;;;;;;58.47;13.80;;;;;;;;;;4992616;28;20038;-65
2021/03/01 00:54:09;;;;;;;75.72;14.63;;;;;;;;;;4991529;28;20050;-65
2021/03/01 00:57:07;;;;;;;63.63;15.23;;;;;;;;;;4991325;28;20121;-63
2021/03/01 00:59:52;;;;;;;45.65;13.15;;;;;;;;;;4994345;28;20050;-65
2021/03/01 01:02:38;;;;;;;56.08;14.48;;;;;;;;;;5011867;28;20042;-64
2021/03/01 01:05:44;;;;;;;59.13;15.98;;;;;;;;;;4997095;28;20046;-64
2021/03/01 01:08:29;;;;;;;77.40;18.20;;;;;;;;;;5011843;28;20135;-64
2021/03/01 01:11:15;;;;;;;68.90;17.27;;;;;;;;;;5012151;28;20046;-64
2021/03/01 01:14:00;;;;;;;98.97;18.83;;;;;;;;;;5011981;28;20054;-64
2021/03/01 01:16:45;;;;;;;74.90;17.27;;;;;;;;;;5011887;28;20046;-65
2021/03/01 01:19:31;;;;;;;64.20;16.38;;;;;;;;;;4995083;28;20453;-64
2021/03/01 01:22:17;;;;;;;55.58;14.68;;;;;;;;;;4992358;28;20561;-64
2021/03/01 01:25:02;;;;;;;64.72;15.00;;;;;;;;;;4992159;28;20067;-65
2021/03/01 01:27:47;;;;;;;87.28;15.43;;;;;;;;;;4995698;28;20088;-64
2021/03/01 01:30:33;;;;;;;111.00;15.93;;;;;;;;;;5011874;28;20057;-64
2021/03/01 01:33:19;;;;;;;82.93;15.77;;;;;;;;;;5011737;28;20065;-63
2021/03/01 01:36:04;;;;;;;122.97;16.77;;;;;;;;;;5011544;28;20057;-65
2021/03/01 01:38:49;;;;;;;118.20;15.63;;;;;;;;;;5011611;28;20064;-65
2021/03/01 01:41:35;;;;;;;126.30;15.50;;;;;;;;;;5011749;28;20077;-65
2021/03/01 01:44:20;;;;;;;173.18;19.00;;;;;;;;;;5009872;28;20050;-64
2021/03/01 01:47:06;;;;;;;111.60;13.07;;;;;;;;;;4992117;28;20509;-64
2021/03/01 01:49:51;;;;;;;137.80;14.32;;;;;;;;;;4991871;28;20050;-64
2021/03/01 01:52:37;;;;;;;118.72;14.30;;;;;;;;;;4993848;28;20046;-65
2021/03/01 01:55:22;;;;;;;83.95;11.65;;;;;;;;;;4995391;28;20133;-64
2021/03/01 01:58:07;;;;;;;104.65;12.43;;;;;;;;;;4980542;28;20046;-64
2021/03/01 02:00:52;;;;;;;84.75;12.73;;;;;;;;;;4995248;28;20425;-64
2021/03/01 02:03:47;;;;;;;82.78;10.65;;;;;;;;;;4995435;28;20078;-64
2021/03/01 02:06:41;;;;;;;78.20;11.30;;;;;;;;;;4995060;28;20042;-64
2021/03/01 02:09:28;;;;;;;115.35;14.27;;;;;;;;;;4995084;28;20105;-64
2021/03/01 02:12:14;;;;;;;74.18;12.13;;;;;;;;;;4995169;28;20426;-64
2021/03/01 02:15:03;;;;;;;74.30;12.00;;;;;;;;;;4995104;28;20053;-64
2021/03/01 02:17:49;;;;;;;79.95;14.18;;;;;;;;;;4996393;28;20096;-64
2021/03/01 02:20:34;;;;;;;71.07;13.75;;;;;;;;;;5000285;28;20425;-64
2021/03/01 02:23:20;;;;;;;100.90;15.02;;;;;;;;;;5014433;28;20050;-63
2021/03/01 02:26:44;;;;;;;92.50;14.90;;;;;;;;;;5014217;28;20187;-63
2021/03/01 02:29:29;;;;;;;75.47;13.30;;;;;;;;;;4934284;29;20123;-63
2021/03/01 02:32:14;;;;;;;87.45;14.70;;;;;;;;;;4921065;29;20086;-63
2021/03/01 02:34:59;;;;;;;70.07;12.25;;;;;;;;;;5002791;28;20050;-63
2021/03/01 02:37:45;;;;;;;65.57;13.95;;;;;;;;;;5014196;28;20050;-64
2021/03/01 02:40:30;;;;;;;57.47;13.10;;;;;;;;;;5014330;28;20050;-63
2021/03/01 02:43:15;;;;;;;61.80;13.13;;;;;;;;;;5014267;28;20046;-64
2021/03/01 02:46:01;;;;;;;67.70;11.38;;;;;;;;;;4999619;28;20057;-63
2021/03/01 02:48:45;;;;;;;41.33;11.18;;;;;;;;;;5014021;28;20053;-64
2021/03/01 02:51:31;;;;;;;90.82;12.23;;;;;;;;;;4999763;28;20057;-64
2021/03/01 02:54:16;;;;;;;88.25;12.68;;;;;;;;;;4999879;28;20413;-64
2021/03/01 02:57:01;;;;;;;78.82;12.80;;;;;;;;;;5014237;28;20494;-63
2021/03/01 02:59:46;;;;;;;58.05;11.40;;;;;;;;;;4999231;28;20042;-63
2021/03/01 03:02:31;;;;;;;70.13;11.60;;;;;;;;;;5013642;28;20053;-63
2021/03/01 03:05:18;;;;;;;62.15;10.73;;;;;;;;;;4998769;28;20046;-63
2021/03/01 03:08:03;;;;;;;48.85;9.77;;;;;;;;;;5013312;28;20041;-64
2021/03/01 03:10:49;;;;;;;37.50;9.15;;;;;;;;;;5013604;28;20142;-63
2021/03/01 03:13:34;;;;;;;43.67;10.25;;;;;;;;;;4998738;28;20506;-63
2021/03/01 03:16:19;;;;;;;32.53;9.48;;;;;;;;;;4998604;28;20045;-64
2021/03/01 03:19:04;;;;;;;66.35;13.05;;;;;;;;;;5013074;28;20042;-63
2021/03/01 03:21:50;;;;;;;44.45;10.95;;;;;;;;;;5013423;28;20042;-64
2021/03/01 03:24:36;;;;;;;64.10;12.30;;;;;;;;;;5013196;28;20564;-64
2021/03/01 03:27:21;;;;;;;47.80;12.23;;;;;;;;;;4998482;28;20125;-64
2021/03/01 03:30:16;;;;;;;53.90;12.50;;;;;;;;;;5013277;28;20038;-63
2021/03/01 03:33:02;;;;;;;42.80;11.00;;;;;;;;;;5013372;28;20449;-64
2021/03/01 03:35:47;;;;;;;51.47;11.98;;;;;;;;;;5013086;28;20117;-63
2021/03/01 03:38:36;;;;;;;76.10;14.85;;;;;;;;;;5012809;28;20121;-63
2021/03/01 03:41:21;;;;;;;78.63;15.00;;;;;;;;;;5012855;28;20046;-64
2021/03/01 03:44:07;;;;;;;59.00;12.60;;;;;;;;;;5013013;28;20046;-63
2021/03/01 03:46:53;;;;;;;70.70;15.63;;;;;;;;;;5011810;28;20045;-64
2021/03/01 03:49:38;;;;;;;68.70;15.75;;;;;;;;;;4996736;28;20050;-64
2021/03/01 03:52:24;;;;;;;83.15;16.30;;;;;;;;;;4997653;28;20125;-63
2021/03/01 03:55:15;;;;;;;81.10;16.55;;;;;;;;;;4997862;28;20050;-63
2021/03/01 03:58:01;;;;;;;92.05;18.20;;;;;;;;;;4997714;28;20494;-63
2021/03/01 04:00:46;;;;;;;58.90;15.55;;;;;;;;;;5012726;28;20406;-63
2021/03/01 04:03:31;;;;;;;76.00;16.88;;;;;;;;;;5012686;28;20506;-64
2021/03/01 04:06:17;;;;;;;67.90;16.70;;;;;;;;;;4997697;28;20091;-64
2021/03/01 04:09:04;;;;;;;79.43;18.35;;;;;;;;;;4997636;28;20042;-63
2021/03/01 04:11:49;;;;;;;69.03;16.15;;;;;;;;;;5008896;28;20045;-64
2021/03/01 04:14:34;;;;;;;61.88;15.07;;;;;;;;;;5006836;28;20491;-63
2021/03/01 04:17:19;;;;;;;77.90;16.80;;;;;;;;;;4978524;28;20042;-64
2021/03/01 04:20:05;;;;;;;64.97;14.90;;;;;;;;;;4993383;28;20046;-64
2021/03/01 04:22:51;;;;;;;43.03;12.10;;;;;;;;;;4993104;28;20050;-64
2021/03/01 04:25:37;;;;;;;56.03;14.40;;;;;;;;;;4978411;28;20391;-64
2021/03/01 04:28:22;;;;;;;74.75;16.08;;;;;;;;;;4992617;28;20345;-64
2021/03/01 04:31:08;;;;;;;77.80;16.55;;;;;;;;;;4992859;28;20146;-63
2021/03/01 04:33:53;;;;;;;79.00;15.40;;;;;;;;;;4992885;28;20046;-64
2021/03/01 04:36:39;;;;;;;44.95;12.95;;;;;;;;;;4992806;28;20491;-64
2021/03/01 04:39:25;;;;;;;57.78;15.10;;;;;;;;;;4992256;28;20105;-64
2021/03/01 04:42:11;;;;;;;71.57;16.05;;;;;;;;;;4992529;28;20420;-64
2021/03/01 04:44:57;;;;;;;62.72;15.55;;;;;;;;;;4978898;28;20047;-64
2021/03/01 04:47:42;;;;;;;57.55;15.88;;;;;;;;;;4996984;28;20413;-63
2021/03/01 04:50:27;;;;;;;61.85;15.13;;;;;;;;;;4997525;28;20132;-64
2021/03/01 04:53:12;;;;;;;41.05;12.68;;;;;;;;;;4997298;28;20041;-64
2021/03/01 04:55:58;;;;;;;49.83;13.25;;;;;;;;;;5011828;28;20074;-63
2021/03/01 04:58:42;;;;;;;47.33;13.30;;;;;;;;;;4997247;28;20077;-63
2021/03/01 05:01:28;;;;;;;43.72;13.13;;;;;;;;;;4997293;28;20077;-64
2021/03/01 05:04:13;;;;;;;43.78;14.63;;;;;;;;;;5011850;28;20042;-65
2021/03/01 05:06:58;;;;;;;40.63;12.77;;;;;;;;;;5030114;23;20132;-65
2021/03/01 05:09:44;;;;;;;45.38;14.30;;;;;;;;;;5031320;28;20046;-65
2021/03/01 05:12:29;;;;;;;53.92;15.48;;;;;;;;;;5031511;28;20037;-65
2021/03/01 05:15:15;;;;;;;44.15;13.93;;;;;;;;;;5031383;28;20048;-65
2021/03/01 05:18:00;;;;;;;42.85;13.80;;;;;;;;;;5031339;28;20050;-65
2021/03/01 05:20:45;;;;;;;57.10;15.23;;;;;;;;;;5031498;28;20057;-65
2021/03/01 05:23:32;;;;;;;44.05;14.60;;;;;;;;;;5031464;28;20041;-65
2021/03/01 05:26:18;;;;;;;38.70;12.82;;;;;;;;;;5031468;28;20049;-65
2021/03/01 05:29:04;;;;;;;32.47;11.80;;;;;;;;;;5020081;28;20096;-65
2021/03/01 05:31:50;;;;;;;36.25;12.02;;;;;;;;;;5035226;28;20053;-65
2021/03/01 05:34:35;;;;;;;27.83;10.35;;;;;;;;;;5035055;28;20041;-65
2021/03/01 05:37:20;;;;;;;27.92;10.55;;;;;;;;;;5035077;28;20448;-65
2021/03/01 05:40:06;;;;;;;30.38;11.07;;;;;;;;;;5035014;28;20048;-65
2021/03/01 05:42:51;;;;;;;30.25;10.73;;;;;;;;;;5035006;28;20041;-65
2021/03/01 05:45:37;;;;;;;26.67;9.32;;;;;;;;;;5034880;28;20061;-65
2021/03/01 05:48:22;;;;;;;22.33;9.45;;;;;;;;;;5034763;28;20054;-65
2021/03/01 05:51:08;;;;;;;23.85;8.52;;;;;;;;;;5034838;28;20042;-65
2021/03/01 05:53:55;;;;;;;26.88;10.48;;;;;;;;;;5035198;28;20050;-65
2021/03/01 05:56:40;;;;;;;19.55;8.27;;;;;;;;;;5034710;28;20049;-65
2021/03/01 05:59:25;;;;;;;21.95;9.43;;;;;;;;;;5019645;28;20154;-65
2021/03/01 06:02:10;;;;;;;16.60;7.97;;;;;;;;;;5019808;28;20120;-65
2021/03/01 06:04:56;;;;;;;21.67;8.90;;;;;;;;;;5019768;28;20060;-65
2021/03/01 06:07:41;;;;;;;23.88;9.57;;;;;;;;;;5034121;28;20524;-65
2021/03/01 06:10:26;;;;;;;18.80;9.43;;;;;;;;;;5019635;28;20128;-65
2021/03/01 06:13:11;;;;;;;22.08;9.80;;;;;;;;;;5034334;28;20049;-65
2021/03/01 06:15:57;;;;;;;19.83;9.38;;;;;;;;;;5034204;28;20037;-65
2021/03/01 06:18:44;;;;;;;19.77;8.70;;;;;;;;;;5034097;28;20038;-65
2021/03/01 06:21:29;;;;;;;15.25;8.68;;;;;;;;;;5033631;28;20041;-65
2021/03/01 06:24:14;;;;;;;17.40;8.63;;;;;;;;;;5019592;28;20054;-65
2021/03/01 06:27:00;;;;;;;17.00;8.18;;;;;;;;;;5034163;28;20092;-64
2021/03/01 06:30:04;;;;;;;20.20;9.77;;;;;;;;;;5033793;28;20049;-64
2021/03/01 06:33:07;;;;;;;21.48;9.20;;;;;;;;;;5022659;28;20046;-64
2021/03/01 06:35:54;;;;;;;22.67;9.15;;;;;;;;;;5013981;28;20587;-64
2021/03/01 06:38:41;;;;;;;21.20;9.48;;;;;;;;;;5013602;28;20383;-64
2021/03/01 06:41:26;;;;;;;15.57;8.20;;;;;;;;;;5014216;28;20405;-64
2021/03/01 06:44:12;;;;;;;18.60;7.95;;;;;;;;;;5014071;28;20410;-65
2021/03/01 06:46:57;;;;;;;17.08;7.93;;;;;;;;;;5018175;28;20052;-65
2021/03/01 06:49:45;;;;;;;16.95;7.78;;;;;;;;;;5025235;28;20132;-64
2021/03/01 06:52:36;;;;;;;17.27;8.48;;;;;;;;;;5019071;28;20108;-64
2021/03/01 06:55:22;;;;;;;11.95;6.45;;;;;;;;;;5013840;28;20042;-65
2021/03/01 06:58:17;;;;;;;13.40;6.82;;;;;;;;;;5013657;28;20045;-64
2021/03/01 07:01:03;;;;;;;14.60;6.93;;;;;;;;;;5013733;28;20049;-64
2021/03/01 07:03:49;;;;;;;13.80;6.78;;;;;;;;;;5013867;28;20046;-64
2021/03/01 07:06:35;;;;;;;18.17;7.07;;;;;;;;;;5013526;28;20080;-64
2021/03/01 07:09:21;;;;;;;13.00;7.10;;;;;;;;;;5013356;28;20432;-65
2021/03/01 07:12:07;;;;;;;17.02;6.93;;;;;;;;;;5013536;28;20042;-65
2021/03/01 07:14:53;;;;;;;13.07;6.32;;;;;;;;;;5013357;28;20049;-64
2021/03/01 07:17:39;;;;;;;14.68;6.60;;;;;;;;;;5013312;28;20052;-64
2021/03/01 07:20:24;;;;;;;12.98;6.53;;;;;;;;;;5028779;28;20045;-64
2021/03/01 07:23:09;;;;;;;11.75;5.95;;;;;;;;;;5033119;28;20041;-64
2021/03/01 07:25:55;;;;;;;11.60;5.13;;;;;;;;;;5013527;28;20050;-65
2021/03/01 07:28:45;;;;;;;9.77;5.35;;;;;;;;;;5018202;28;20050;-65
2021/03/01 07:31:30;;;;;;;12.95;5.35;;;;;;;;;;5024572;28;20038;-64
2021/03/01 07:34:16;;;;;;;10.65;5.40;;;;;;;;;;5023480;28;20112;-66
2021/03/01 07:37:01;;;;;;;13.32;6.35;;;;;;;;;;5022221;28;20042;-66
2021/03/01 07:39:46;;;;;;;11.93;6.03;;;;;;;;;;5025795;28;20625;-66
2021/03/01 07:42:33;;;;;;;17.30;6.82;;;;;;;;;;5024457;28;20042;-67
2021/03/01 07:45:19;;;;;;;11.77;6.07;;;;;;;;;;5030192;28;20119;-65
2021/03/01 07:48:13;;;;;;;14.68;6.85;;;;;;;;;;5032492;28;20045;-66
2021/03/01 07:50:58;;;;;;;13.90;6.85;;;;;;;;;;5031764;28;20046;-67
2021/03/01 07:53:45;;;;;;;14.65;7.07;;;;;;;;;;5018802;28;20108;-67
2021/03/01 07:56:33;;;;;;;16.98;7.53;;;;;;;;;;5012693;28;20046;-66
2021/03/01 07:59:21;;;;;;;14.45;6.78;;;;;;;;;;5012449;28;20046;-67
2021/03/01 08:02:13;;;;;;;13.00;5.95;;;;;;;;;;5012686;28;20073;-67
2021/03/01 08:04:59;;;;;;;14.55;5.97;;;;;;;;;;4997565;28;20528;-67
2021/03/01 08:07:44;;;;;;;11.05;5.28;;;;;;;;;;5012248;28;20053;-67
2021/03/01 08:10:29;;;;;;;13.25;6.22;;;;;;;;;;5011605;28;20520;-65
2021/03/01 08:13:14;;;;;;;10.32;5.68;;;;;;;;;;5014494;28;20050;-66
2021/03/01 08:16:18;;;;;;;9.45;6.13;;;;;;;;;;5032017;28;20042;-66
2021/03/01 08:19:04;;;;;;;8.43;5.75;;;;;;;;;;5031792;28;20569;-64
2021/03/01 08:22:05;;;;;;;14.25;6.22;;;;;;;;;;5032130;28;20045;-64
2021/03/01 08:24:50;;;;;;;11.90;6.72;;;;;;;;;;5032124;28;20041;-64
2021/03/01 08:27:39;;;;;;;10.70;5.63;;;;;;;;;;5031924;28;20049;-65
2021/03/01 08:30:25;;;;;;;11.82;5.32;;;;;;;;;;5032057;28;20053;-66
2021/03/01 08:33:10;;;;;;;9.90;6.20;;;;;;;;;;5032051;28;20049;-66
2021/03/01 08:36:02;;;;;;;12.60;6.20;;;;;;;;;;5031875;28;20521;-66
2021/03/01 08:38:53;;;;;;;10.77;6.20;;;;;;;;;;5031610;28;20049;-65
2021/03/01 08:41:39;;;;;;;8.93;4.80;;;;;;;;;;5029202;28;20046;-66
2021/03/01 08:44:25;;;;;;;12.30;6.07;;;;;;;;;;5015077;28;20537;-66
2021/03/01 08:47:10;;;;;;;15.73;6.18;;;;;;;;;;5025007;28;20050;-65
2021/03/01 08:49:55;;;;;;;11.02;5.82;;;;;;;;;;5013839;28;20112;-66
2021/03/01 08:52:46;;;;;;;16.30;7.03;;;;;;;;;;4997253;28;20054;-66
2021/03/01 08:55:31;;;;;;;9.38;6.10;;;;;;;;;;5026610;28;20045;-66
2021/03/01 08:58:18;;;;;;;8.68;4.93;;;;;;;;;;5027936;28;20444;-66
2021/03/01 09:01:04;;;;;;;13.27;6.30;;;;;;;;;;5023862;28;20038;-66
2021/03/01 09:03:49;;;;;;;10.27;5.30;;;;;;;;;;5024685;28;20053;-65
2021/03/01 09:06:34;;;;;;;8.75;5.97;;;;;;;;;;5018829;28;20089;-65
2021/03/01 09:09:20;;;;;;;11.68;5.80;;;;;;;;;;5022308;28;20544;-65
2021/03/01 09:12:05;;;;;;;10.43;6.80;;;;;;;;;;5032989;28;20159;-65
2021/03/01 09:14:51;;;;;;;11.98;5.55;;;;;;;;;;5024487;28;20049;-66
2021/03/01 09:17:37;;;;;;;10.30;6.15;;;;;;;;;;5003971;28;20054;-64
2021/03/01 09:20:22;;;;;;;9.68;6.13;;;;;;;;;;5021002;28;20053;-66
2021/03/01 09:23:08;;;;;;;12.32;6.55;;;;;;;;;;5026466;28;20064;-65
2021/03/01 09:25:53;;;;;;;11.25;5.63;;;;;;;;;;5008701;28;20085;-66
2021/03/01 09:28:38;;;;;;;9.38;5.03;;;;;;;;;;5035119;28;20049;-65
2021/03/01 09:31:24;;;;;;;8.93;4.40;;;;;;;;;;5035210;28;20037;-64
2021/03/01 09:34:09;;;;;;;8.68;5.10;;;;;;;;;;5035149;28;20045;-65
2021/03/01 09:36:55;;;;;;;7.82;3.97;;;;;;;;;;5035050;28;20045;-66
2021/03/01 09:39:43;;;;;;;8.60;4.50;;;;;;;;;;5020192;28;20050;-65
2021/03/01 09:42:29;;;;;;;7.30;4.90;;;;;;;;;;5034991;28;20501;-64
2021/03/01 09:45:14;;;;;;;9.57;4.53;;;;;;;;;;5027072;28;20049;-66
2021/03/01 09:48:03;;;;;;;6.90;4.50;;;;;;;;;;5013971;28;20136;-65
2021/03/01 09:50:48;;;;;;;7.97;4.75;;;;;;;;;;5020457;28;20046;-65
2021/03/01 09:53:33;;;;;;;9.80;4.50;;;;;;;;;;5034868;28;20054;-65
2021/03/01 09:56:18;;;;;;;8.75;4.65;;;;;;;;;;5025940;28;20128;-64
2021/03/01 09:59:04;;;;;;;12.15;5.10;;;;;;;;;;5014680;28;20116;-65
2021/03/01 10:01:49;;;;;;;10.95;5.03;;;;;;;;;;5021010;28;20041;-66
2021/03/01 10:04:34;;;;;;;8.52;4.55;;;;;;;;;;5015899;28;20045;-65
2021/03/01 10:07:23;;;;;;;10.75;4.25;;;;;;;;;;5029899;28;20116;-67
2021/03/01 10:10:13;;;;;;;7.82;4.32;;;;;;;;;;5030751;28;20046;-65
2021/03/01 10:12:59;;;;;;;9.15;4.20;;;;;;;;;;5028932;28;20049;-65
2021/03/01 10:15:45;;;;;;;7.55;3.83;;;;;;;;;;5012547;28;20086;-65
2021/03/01 10:18:31;;;;;;;6.93;4.40;;;;;;;;;;5010584;28;20120;-66
2021/03/01 10:21:16;;;;;;;5.57;3.80;;;;;;;;;;5028317;28;20045;-67
2021/03/01 10:24:03;;;;;;;7.60;4.53;;;;;;;;;;5032657;28;20406;-66
2021/03/01 10:26:53;;;;;;;7.80;4.00;;;;;;;;;;5030258;28;20061;-66
2021/03/01 10:29:44;;;;;;;6.53;3.50;;;;;;;;;;5022803;28;20481;-66
2021/03/01 10:32:30;;;;;;;6.20;3.03;;;;;;;;;;5027499;28;20100;-66
2021/03/01 10:35:18;;;;;;;7.78;3.97;;;;;;;;;;5033896;28;20331;-64
2021/03/01 10:38:06;;;;;;;13.85;4.13;;;;;;;;;;5031784;28;20045;-64
2021/03/01 10:40:51;;;;;;;8.70;4.00;;;;;;;;;;5014126;28;20046;-65
2021/03/01 10:43:36;;;;;;;7.05;3.70;;;;;;;;;;5014172;28;20045;-66
2021/03/01 10:46:31;;;;;;;5.00;4.00;;;;;;;;;;5013668;28;20056;-65
2021/03/01 10:49:26;;;;;;;8.18;3.50;;;;;;;;;;5023690;28;20096;-66
2021/03/01 10:52:12;;;;;;;6.13;3.28;;;;;;;;;;5031710;28;20468;-65
2021/03/01 10:54:58;;;;;;;8.18;3.63;;;;;;;;;;5033085;28;20421;-67
2021/03/01 10:57:43;;;;;;;6.85;3.30;;;;;;;;;;5029039;28;20037;-65
2021/03/01 11:00:29;;;;;;;4.50;2.88;;;;;;;;;;5023724;28;20042;-65
2021/03/01 11:03:14;;;;;;;4.47;2.92;;;;;;;;;;5024477;28;20041;-65
2021/03/01 11:05:59;;;;;;;6.82;3.78;;;;;;;;;;5023273;28;20045;-66
2021/03/01 11:08:45;;;;;;;7.20;3.55;;;;;;;;;;5025044;28;20049;-67
2021/03/01 11:11:30;;;;;;;5.72;2.85;;;;;;;;;;5026885;28;20057;-66
2021/03/01 11:14:16;;;;;;;7.32;3.13;;;;;;;;;;5032118;28;20053;-66
2021/03/01 11:17:02;;;;;;;3.60;2.75;;;;;;;;;;5033043;28;20041;-65
2021/03/01 11:19:47;;;;;;;5.85;2.60;;;;;;;;;;5032968;28;20692;-67
2021/03/01 11:22:32;;;;;;;5.85;3.13;;;;;;;;;;5033207;28;20049;-67
2021/03/01 11:25:18;;;;;;;5.95;3.20;;;;;;;;;;5032945;28;20434;-66
2021/03/01 11:28:03;;;;;;;5.93;2.78;;;;;;;;;;5032977;28;20053;-67
2021/03/01 11:30:48;;;;;;;6.72;3.47;;;;;;;;;;5032948;28;20045;-66
2021/03/01 11:33:34;;;;;;;5.68;2.95;;;;;;;;;;5031878;28;20049;-66
2021/03/01 11:36:19;;;;;;;7.18;3.08;;;;;;;;;;5032722;28;20501;-66
2021/03/01 11:39:08;;;;;;;6.93;3.58;;;;;;;;;;5031797;28;20046;-67
2021/03/01 11:41:53;;;;;;;8.00;3.47;;;;;;;;;;5032842;28;20413;-67
2021/03/01 11:44:39;;;;;;;8.10;3.10;;;;;;;;;;5032707;28;20116;-67
2021/03/01 11:47:26;;;;;;;9.48;3.65;;;;;;;;;;5032760;28;20076;-66
2021/03/01 11:50:11;;;;;;;5.70;2.72;;;;;;;;;;5029804;28;20049;-67
2021/03/01 11:52:57;;;;;;;5.65;2.78;;;;;;;;;;5032618;28;20041;-67
2021/03/01 11:55:43;;;;;;;6.75;3.05;;;;;;;;;;5032563;28;20046;-66
2021/03/01 11:58:28;;;;;;;7.43;3.35;;;;;;;;;;5032242;28;20049;-67
2021/03/01 12:01:13;;;;;;;4.80;2.90;;;;;;;;;;5032531;28;20456;-67
2021/03/01 12:03:58;;;;;;;7.00;2.80;;;;;;;;;;5032354;28;20498;-67
2021/03/01 12:06:44;;;;;;;6.28;3.13;;;;;;;;;;5032128;28;20119;-66
2021/03/01 12:09:29;;;;;;;6.70;3.30;;;;;;;;;;5031861;28;20537;-67
2021/03/01 12:12:15;;;;;;;7.63;2.92;;;;;;;;;;5032217;28;20383;-67
2021/03/01 12:15:00;;;;;;;7.82;3.25;;;;;;;;;;5031996;28;20068;-67
2021/03/01 12:17:46;;;;;;;3.95;2.50;;;;;;;;;;5031892;28;20049;-66
2021/03/01 12:20:31;;;;;;;4.20;2.70;;;;;;;;;;5032004;28;20046;-66
2021/03/01 12:23:16;;;;;;;4.65;2.53;;;;;;;;;;5032088;28;20049;-67
2021/03/01 12:26:02;;;;;;;6.05;2.58;;;;;;;;;;5031835;28;20041;-67
2021/03/01 12:28:47;;;;;;;5.63;2.55;;;;;;;;;;5031615;28;20041;-66
2021/03/01 12:31:32;;;;;;;5.38;3.03;;;;;;;;;;5031919;28;20099;-67
2021/03/01 12:34:18;;;;;;;3.75;2.38;;;;;;;;;;5031795;28;20041;-66
2021/03/01 12:37:03;;;;;;;7.60;3.30;;;;;;;;;;5031447;28;20053;-68
2021/03/01 12:39:48;;;;;;;5.03;2.35;;;;;;;;;;5026888;28;20120;-68
2021/03/01 12:42:34;;;;;;;4.85;2.38;;;;;;;;;;5027507;28;20049;-67
2021/03/01 12:45:19;;;;;;;5.40;2.90;;;;;;;;;;5012765;28;20033;-68
2021/03/01 12:48:04;;;;;;;6.10;3.10;;;;;;;;;;5017024;28;20054;-67
2021/03/01 12:50:50;;;;;;;6.97;3.15;;;;;;;;;;4994986;28;20050;-68
2021/03/01 12:53:36;;;;;;;5.28;2.65;;;;;;;;;;5011029;28;20046;-67
2021/03/01 12:56:21;;;;;;;7.68;3.70;;;;;;;;;;5010823;28;20038;-68
2021/03/01 12:59:06;;;;;;;4.65;2.25;;;;;;;;;;5011503;28;20050;-67
2021/03/01 13:01:51;;;;;;;5.07;2.22;;;;;;;;;;5012230;28;20108;-67
2021/03/01 13:04:37;;;;;;;4.28;2.33;;;;;;;;;;4997390;28;20052;-67
2021/03/01 13:07:22;;;;;;;6.07;2.15;;;;;;;;;;5022459;28;20041;-67
2021/03/01 13:10:08;;;;;;;4.65;2.35;;;;;;;;;;5012636;28;20046;-68
2021/03/01 13:12:53;;;;;;;6.85;2.30;;;;;;;;;;5012188;28;20116;-68
2021/03/01 13:15:38;;;;;;;5.35;2.05;;;;;;;;;;5015693;28;20088;-68
2021/03/01 13:18:24;;;;;;;3.20;2.20;;;;;;;;;;5020505;28;20116;-68
2021/03/01 13:21:09;;;;;;;4.10;2.20;;;;;;;;;;5015387;28;20042;-67
2021/03/01 13:23:57;;;;;;;4.47;2.13;;;;;;;;;;5017771;28;20041;-67
2021/03/01 13:26:44;;;;;;;4.57;2.20;;;;;;;;;;5017680;28;20524;-68
2021/03/01 13:29:29;;;;;;;4.75;2.30;;;;;;;;;;5021719;28;20050;-68
2021/03/01 13:32:15;;;;;;;6.00;2.05;;;;;;;;;;5030386;28;20489;-67
2021/03/01 13:35:00;;;;;;;4.32;2.00;;;;;;;;;;5004114;28;20042;-68
2021/03/01 13:37:45;;;;;;;6.95;3.10;;;;;;;;;;5020973;28;20172;-67
2021/03/01 13:40:31;;;;;;;4.72;2.33;;;;;;;;;;5017137;28;20046;-68
2021/03/01 13:43:16;;;;;;;5.65;2.92;;;;;;;;;;5024470;28;20053;-68
2021/03/01 13:46:02;;;;;;;4.65;2.30;;;;;;;;;;5018884;28;20045;-68
2021/03/01 13:48:47;;;;;;;4.82;2.58;;;;;;;;;;5024733;28;20072;-65
2021/03/01 13:51:32;;;;;;;5.75;3.08;;;;;;;;;;5015130;28;20534;-66
2021/03/01 13:54:18;;;;;;;5.43;2.90;;;;;;;;;;5015066;28;20037;-65
2021/03/01 13:57:03;;;;;;;9.85;3.63;;;;;;;;;;5014836;28;20457;-65
2021/03/01 13:59:49;;;;;;;4.82;2.88;;;;;;;;;;5014672;28;20037;-64
2021/03/01 14:02:34;;;;;;;6.05;3.13;;;;;;;;;;5014916;28;20117;-65
2021/03/01 14:05:20;;;;;;;4.13;2.45;;;;;;;;;;5014687;28;20120;-64
2021/03/01 14:08:05;;;;;;;5.68;3.63;;;;;;;;;;5020413;28;20050;-64
2021/03/01 14:10:50;;;;;;;5.30;3.00;;;;;;;;;;5018349;28;20046;-64
2021/03/01 14:13:36;;;;;;;8.35;4.20;;;;;;;;;;5015061;28;20049;-65
2021/03/01 14:16:21;;;;;;;5.18;3.22;;;;;;;;;;5014599;28;20061;-64
2021/03/01 14:19:06;;;;;;;6.68;3.70;;;;;;;;;;5014470;28;20505;-65
2021/03/01 14:21:52;;;;;;;7.60;3.88;;;;;;;;;;5014492;28;20042;-65
2021/03/01 14:24:37;;;;;;;4.75;2.80;;;;;;;;;;5014498;28;20046;-65
2021/03/01 14:27:24;;;;;;;5.57;3.83;;;;;;;;;;5014825;28;20045;-65
2021/03/01 14:30:09;;;;;;;6.43;4.32;;;;;;;;;;5017949;28;20497;-65
2021/03/01 14:32:54;;;;;;;6.82;3.30;;;;;;;;;;5027242;28;20038;-65
2021/03/01 14:35:40;;;;;;;6.15;3.85;;;;;;;;;;5033897;28;20037;-65
2021/03/01 14:38:25;;;;;;;6.20;4.05;;;;;;;;;;5033682;28;20513;-65
2021/03/01 14:41:10;;;;;;;8.38;3.88;;;;;;;;;;5033819;28;20117;-65
2021/03/01 14:43:56;;;;;;;4.13;3.30;;;;;;;;;;5029175;28;20099;-65
2021/03/01 14:46:41;;;;;;;6.40;3.70;;;;;;;;;;5022812;28;20041;-64
2021/03/01 14:49:27;;;;;;;8.20;3.70;;;;;;;;;;5014527;28;20069;-64
2021/03/01 14:52:12;;;;;;;4.13;3.00;;;;;;;;;;5023852;28;20417;-64
2021/03/01 14:54:58;;;;;;;4.93;4.03;;;;;;;;;;5033553;28;20042;-64
2021/03/01 14:57:43;;;;;;;8.38;4.05;;;;;;;;;;5033365;28;20041;-64
2021/03/01 15:00:28;;;;;;;7.00;3.45;;;;;;;;;;5033378;28;20045;-64
2021/03/01 15:03:14;;;;;;;7.00;4.28;;;;;;;;;;5023159;28;20041;-63
2021/03/01 15:05:59;;;;;;;5.38;3.90;;;;;;;;;;5013524;28;20124;-63
2021/03/01 15:08:45;;;;;;;6.53;4.57;;;;;;;;;;5013458;28;20438;-63
2021/03/01 15:11:30;;;;;;;6.18;3.88;;;;;;;;;;5023336;28;20124;-63
2021/03/01 15:14:15;;;;;;;6.60;3.75;;;;;;;;;;5013504;28;20050;-63
2021/03/01 15:17:01;;;;;;;6.68;3.70;;;;;;;;;;5013055;28;20440;-64
2021/03/01 15:19:46;;;;;;;7.72;4.50;;;;;;;;;;5014225;28;20041;-63
2021/03/01 15:22:31;;;;;;;5.97;4.30;;;;;;;;;;5021951;28;20425;-64
2021/03/01 15:25:16;;;;;;;8.38;4.63;;;;;;;;;;5025180;28;20045;-65
2021/03/01 15:28:01;;;;;;;7.22;4.40;;;;;;;;;;4998399;28;20046;-64
2021/03/01 15:30:47;;;;;;;6.38;4.55;;;;;;;;;;5022128;28;20152;-65
2021/03/01 15:33:32;;;;;;;8.63;4.72;;;;;;;;;;5025368;28;20050;-64
2021/03/01 15:36:17;;;;;;;8.77;5.68;;;;;;;;;;5012992;28;20050;-65
2021/03/01 15:39:02;;;;;;;9.85;6.25;;;;;;;;;;5012810;28;20049;-64
2021/03/01 15:41:48;;;;;;;10.07;5.57;;;;;;;;;;5012818;28;20049;-64
2021/03/01 15:44:33;;;;;;;7.40;5.10;;;;;;;;;;5012990;28;20073;-65
2021/03/01 15:47:18;;;;;;;8.88;5.28;;;;;;;;;;5012969;28;20049;-64
2021/03/01 15:50:04;;;;;;;8.02;5.90;;;;;;;;;;5012697;28;20077;-64
2021/03/01 15:52:49;;;;;;;8.88;5.25;;;;;;;;;;5016184;28;20113;-65
2021/03/01 15:55:35;;;;;;;7.00;5.15;;;;;;;;;;5003864;28;20050;-64
2021/03/01 15:58:21;;;;;;;9.50;5.57;;;;;;;;;;5012339;28;20046;-64
2021/03/01 16:01:07;;;;;;;9.93;5.85;;;;;;;;;;5012664;28;20046;-65
2021/03/01 16:03:52;;;;;;;11.15;6.43;;;;;;;;;;4997982;28;20121;-64
2021/03/01 16:06:38;;;;;;;7.60;5.93;;;;;;;;;;5012411;28;20054;-64
2021/03/01 16:09:23;;;;;;;8.02;6.18;;;;;;;;;;5012160;28;20661;-64
2021/03/01 16:12:09;;;;;;;9.80;6.55;;;;;;;;;;5012112;28;20042;-64
2021/03/01 16:14:54;;;;;;;9.63;7.30;;;;;;;;;;5017630;28;20501;-65
2021/03/01 16:17:39;;;;;;;9.98;7.07;;;;;;;;;;5020999;28;20049;-64
2021/03/01 16:20:24;;;;;;;12.80;7.38;;;;;;;;;;4997543;28;20505;-64
2021/03/01 16:23:09;;;;;;;11.77;7.28;;;;;;;;;;5012377;28;20041;-64